Time;durP1;ratioP1;P1;durP2;ratioP2;P2;SDS_P1;SDS_P2;PMS_P1;PMS_P2;Temp;Humidity;BMP_temperature;BMP_pressure;BME280_temperature;BME280_humidity;BME280_pressure;Samples;Min_cycle;Max_cycle;Signal;HPM_P1;HPM_P2
2023/01/28 00:00:45;;;;;;;52.70;23.70;;;0.40;99.90;;;;;;8267983;28;20270;-69
2023/01/28 00:04:46;;;;;;;46.03;24.10;;;0.40;99.90;;;;;;8269893;28;20189;-67
2023/01/28 00:08:47;;;;;;;63.90;30.40;;;0.40;99.90;;;;;;8263023;28;20216;-67
2023/01/28 00:12:49;;;;;;;65.57;31.47;;;0.40;99.90;;;;;;8264550;28;20341;-67
2023/01/28 00:16:50;;;;;;;70.23;34.80;;;0.40;99.90;;;;;;8266239;28;20179;-68
2023/01/28 00:21:03;;;;;;;57.90;29.93;;;0.40;99.90;;;;;;8270224;28;20249;-68
2023/01/28 00:25:04;;;;;;;54.47;28.07;;;0.40;99.90;;;;;;8266363;28;20168;-68
2023/01/28 00:29:05;;;;;;;59.20;31.07;;;0.30;99.90;;;;;;8266408;28;20197;-68
2023/01/28 00:33:06;;;;;;;56.83;29.53;;;0.30;99.90;;;;;;8265807;28;20207;-67
2023/01/28 00:37:07;;;;;;;68.63;34.40;;;0.30;99.90;;;;;;8266550;28;20508;-68
2023/01/28 00:41:10;;;;;;;42.77;23.97;;;0.30;99.90;;;;;;8265330;28;20203;-68
2023/01/28 00:45:11;;;;;;;35.73;20.90;;;0.30;99.90;;;;;;8259600;28;20187;-68
2023/01/28 00:49:12;;;;;;;44.73;24.20;;;0.20;99.90;;;;;;8261528;28;20236;-69
2023/01/28 00:53:13;;;;;;;48.03;22.20;;;0.20;99.90;;;;;;8262383;28;20274;-68
2023/01/28 00:57:13;;;;;;;44.50;22.60;;;0.10;99.90;;;;;;8266474;28;20184;-69
2023/01/28 01:01:17;;;;;;;54.33;26.30;;;0.00;99.90;;;;;;8263201;28;20212;-69
2023/01/28 01:05:18;;;;;;;37.13;20.80;;;0.00;99.90;;;;;;8265128;28;20183;-68
2023/01/28 01:09:19;;;;;;;30.87;18.90;;;0.00;99.90;;;;;;8270412;28;20210;-67
2023/01/28 01:13:19;;;;;;;25.40;15.43;;;0.00;99.90;;;;;;8270344;28;20741;-68
2023/01/28 01:17:20;;;;;;;32.77;19.73;;;0.00;99.90;;;;;;8263673;28;20194;-69
2023/01/28 01:21:24;;;;;;;39.97;22.57;;;-0.10;99.90;;;;;;8269498;28;20203;-68
2023/01/28 01:25:25;;;;;;;34.47;20.23;;;-0.10;99.90;;;;;;8261763;28;20283;-67
2023/01/28 01:29:26;;;;;;;28.13;17.47;;;-0.10;99.90;;;;;;8263390;28;20199;-69
2023/01/28 01:33:28;;;;;;;29.20;15.87;;;-0.10;99.90;;;;;;8263244;28;20179;-67
2023/01/28 01:37:29;;;;;;;27.30;18.10;;;-0.20;99.90;;;;;;8267652;28;20262;-69
2023/01/28 01:41:31;;;;;;;31.97;17.90;;;-0.20;99.90;;;;;;8222257;28;1299947;-67
2023/01/28 01:45:34;;;;;;;26.57;17.90;;;-0.30;99.90;;;;;;8261550;28;20183;-68
2023/01/28 01:49:35;;;;;;;27.97;17.97;;;-0.30;99.90;;;;;;8263653;28;20211;-68
2023/01/28 01:53:41;;;;;;;29.93;18.90;;;-0.30;99.90;;;;;;8266939;28;20255;-67
2023/01/28 01:57:45;;;;;;;32.67;18.27;;;-0.30;99.90;;;;;;8261157;28;20199;-68
2023/01/28 02:01:46;;;;;;;29.30;17.97;;;-0.40;99.90;;;;;;8264697;28;20270;-67
2023/01/28 02:05:49;;;;;;;33.50;18.13;;;-0.40;99.90;;;;;;8262264;28;20223;-67
2023/01/28 02:09:49;;;;;;;32.63;18.83;;;-0.30;99.90;;;;;;8269936;28;20198;-68
2023/01/28 02:13:55;;;;;;;27.67;16.80;;;-0.40;99.90;;;;;;8264902;28;20194;-67
2023/01/28 02:17:56;;;;;;;38.67;21.53;;;-0.40;99.90;;;;;;8260261;28;20207;-67
2023/01/28 02:22:25;;;;;;;38.03;21.53;;;-0.40;99.90;;;;;;8264754;28;20218;-67
2023/01/28 02:26:59;;;;;;;34.07;20.20;;;-0.40;99.90;;;;;;8264247;28;20215;-67
2023/01/28 02:31:14;;;;;;;34.13;19.53;;;-0.40;99.90;;;;;;8259963;28;20204;-67
2023/01/28 02:35:38;;;;;;;25.73;16.20;;;-0.40;99.90;;;;;;8268040;28;20199;-67
2023/01/28 02:39:44;;;;;;;29.97;17.20;;;-0.50;99.90;;;;;;8267253;28;20218;-67
2023/01/28 02:43:46;;;;;;;29.57;18.23;;;-0.50;99.90;;;;;;8267325;28;20179;-67
2023/01/28 02:47:58;;;;;;;34.30;18.73;;;-0.50;99.90;;;;;;8267355;28;20350;-68
2023/01/28 02:52:19;;;;;;;33.40;20.10;;;-0.50;99.90;;;;;;8267604;28;20195;-67
2023/01/28 02:56:55;;;;;;;30.63;17.63;;;-0.50;99.90;;;;;;8264079;28;20192;-67
2023/01/28 03:01:09;;;;;;;21.73;14.00;;;-0.50;99.90;;;;;;8255654;28;20222;-67
2023/01/28 03:05:27;;;;;;;29.23;16.50;;;-0.50;99.90;;;;;;8269884;28;20242;-67
2023/01/28 03:09:29;;;;;;;23.77;15.40;;;-0.50;99.90;;;;;;8274158;28;20192;-67
2023/01/28 03:39:51;;;;;;;21.73;13.37;;;-0.70;99.90;;;;;;8262560;28;20226;-67
2023/01/28 03:43:53;;;;;;;25.93;14.77;;;-0.70;99.90;;;;;;8267131;28;20186;-68
2023/01/28 03:47:54;;;;;;;35.07;17.80;;;-0.70;99.90;;;;;;8264601;28;20192;-67
2023/01/28 03:51:54;;;;;;;27.23;16.07;;;-0.70;99.90;;;;;;8266721;28;20202;-67
2023/01/28 03:55:55;;;;;;;29.60;16.30;;;-0.70;99.90;;;;;;8268161;28;20205;-67
2023/01/28 03:59:56;;;;;;;31.13;16.87;;;-0.70;99.90;;;;;;8274878;28;20230;-67
2023/01/28 04:03:57;;;;;;;30.43;17.57;;;-0.70;99.90;;;;;;8268859;28;20187;-64
2023/01/28 04:07:58;;;;;;;30.90;18.53;;;-0.70;99.90;;;;;;8268002;28;20191;-67
2023/01/28 04:11:59;;;;;;;36.80;19.53;;;-0.70;99.90;;;;;;8264760;28;20194;-67
2023/01/28 04:16:02;;;;;;;31.03;16.27;;;-0.70;99.90;;;;;;8268669;28;20249;-67
2023/01/28 04:20:03;;;;;;;28.73;17.83;;;-0.70;99.90;;;;;;8260708;28;20258;-67
2023/01/28 04:24:04;;;;;;;39.67;21.83;;;-0.70;99.90;;;;;;8263964;28;20615;-68
2023/01/28 04:28:05;;;;;;;43.90;23.83;;;-0.70;99.90;;;;;;8264850;28;20195;-67
2023/01/28 04:32:06;;;;;;;35.87;19.97;;;-0.70;99.90;;;;;;8264439;28;20215;-67
2023/01/28 04:36:06;;;;;;;26.80;16.33;;;-0.70;99.90;;;;;;8271526;28;20210;-67
2023/01/28 04:40:09;;;;;;;31.60;17.77;;;-0.70;99.90;;;;;;8260460;28;20221;-67
2023/01/28 04:44:10;;;;;;;26.07;16.07;;;-0.80;99.90;;;;;;8267435;28;20189;-67
2023/01/28 04:48:11;;;;;;;31.90;17.63;;;-0.80;99.90;;;;;;8264126;28;20189;-67
2023/01/28 04:52:11;;;;;;;31.20;17.10;;;-0.80;99.90;;;;;;8264911;28;20222;-66
2023/01/28 04:56:12;;;;;;;43.27;24.27;;;-0.80;99.90;;;;;;8267010;28;20195;-67
2023/01/28 05:00:13;;;;;;;27.30;17.20;;;-0.80;99.90;;;;;;8261760;28;20214;-67
2023/01/28 05:04:16;;;;;;;26.33;16.47;;;-0.70;99.90;;;;;;8261571;28;20206;-67
2023/01/28 05:08:17;;;;;;;34.87;19.13;;;-0.80;99.90;;;;;;8267121;28;20187;-67
2023/01/28 05:12:19;;;;;;;25.30;16.30;;;-0.80;99.90;;;;;;8269703;28;20204;-67
2023/01/28 05:16:20;;;;;;;25.03;14.90;;;-0.80;99.90;;;;;;8262408;28;20187;-67
2023/01/28 05:20:21;;;;;;;28.00;18.20;;;-0.80;99.90;;;;;;8263645;28;20211;-67
2023/01/28 05:24:22;;;;;;;20.03;13.97;;;-0.80;99.90;;;;;;8265539;28;20190;-66
2023/01/28 05:28:23;;;;;;;25.20;15.37;;;-0.80;99.90;;;;;;8265151;28;20182;-67
2023/01/28 05:32:24;;;;;;;20.30;13.20;;;-0.80;99.90;;;;;;8266243;28;20528;-67
2023/01/28 05:36:25;;;;;;;25.10;13.57;;;-0.90;99.90;;;;;;8262919;28;20218;-67
2023/01/28 05:40:26;;;;;;;17.67;11.53;;;-1.00;99.90;;;;;;8265395;28;20218;-67
2023/01/28 05:44:26;;;;;;;17.87;10.97;;;-1.00;99.90;;;;;;8263422;28;20217;-67
2023/01/28 05:48:27;;;;;;;17.40;11.33;;;-1.00;99.90;;;;;;8263195;28;20198;-66
2023/01/28 05:52:28;;;;;;;14.57;9.83;;;-1.00;99.90;;;;;;8263737;28;20215;-67
2023/01/28 05:56:29;;;;;;;15.10;10.90;;;-1.00;99.90;;;;;;8255742;28;20204;-66
2023/01/28 06:00:30;;;;;;;14.67;9.40;;;-1.10;99.90;;;;;;8262818;28;20216;-67
2023/01/28 06:04:31;;;;;;;24.53;12.73;;;-1.10;99.90;;;;;;8252946;28;20204;-67
2023/01/28 06:08:31;;;;;;;13.87;8.67;;;-1.10;99.90;;;;;;8261947;28;20197;-66
2023/01/28 06:12:32;;;;;;;14.50;9.10;;;-1.20;99.90;;;;;;8262520;28;20613;-67
2023/01/28 06:16:33;;;;;;;18.37;9.83;;;-1.30;99.90;;;;;;8267229;28;20292;-67
2023/01/28 06:20:34;;;;;;;33.33;14.50;;;-1.20;99.90;;;;;;8272088;28;20689;-67
2023/01/28 06:24:35;;;;;;;13.57;8.63;;;-1.20;99.90;;;;;;8271491;28;20190;-67
2023/01/28 06:28:36;;;;;;;12.17;8.40;;;-1.20;99.90;;;;;;8268968;28;20298;-64
2023/01/28 06:32:37;;;;;;;9.77;7.07;;;-1.20;99.90;;;;;;8268334;28;20229;-67
2023/01/28 06:36:37;;;;;;;14.27;8.00;;;-1.30;99.90;;;;;;8265802;28;20211;-66
2023/01/28 06:40:39;;;;;;;10.27;7.47;;;-1.30;99.90;;;;;;8273945;28;20219;-67
2023/01/28 06:44:39;;;;;;;14.90;7.83;;;-1.20;99.90;;;;;;8266816;28;20194;-67
2023/01/28 06:48:40;;;;;;;14.40;7.77;;;-1.30;99.90;;;;;;8270736;28;20208;-67
2023/01/28 06:52:41;;;;;;;11.80;7.63;;;-1.30;99.90;;;;;;8270903;28;20200;-69
2023/01/28 06:56:43;;;;;;;11.37;8.20;;;-1.30;99.90;;;;;;8269770;28;20197;-68
2023/01/28 07:00:43;;;;;;;13.27;8.10;;;-1.20;99.90;;;;;;8268250;28;20633;-69
2023/01/28 07:04:45;;;;;;;16.17;10.00;;;-1.20;99.90;;;;;;8271529;28;20199;-68
2023/01/28 07:08:46;;;;;;;11.27;8.03;;;-1.10;99.90;;;;;;8272373;28;20185;-69
2023/01/28 07:12:47;;;;;;;14.37;9.50;;;-1.10;99.90;;;;;;8267204;28;20300;-68
2023/01/28 07:16:48;;;;;;;14.00;9.60;;;-1.20;99.90;;;;;;8269732;28;20196;-68
2023/01/28 07:20:49;;;;;;;14.83;9.80;;;-1.20;99.90;;;;;;8266277;28;20242;-69
2023/01/28 07:24:50;;;;;;;9.37;6.50;;;-1.20;99.90;;;;;;8263006;28;20191;-68
2023/01/28 07:28:51;;;;;;;21.17;13.00;;;-1.20;99.90;;;;;;8262091;28;20243;-69
2023/01/28 07:32:56;;;;;;;25.07;13.37;;;-1.20;99.90;;;;;;8266899;28;20198;-69
2023/01/28 07:36:57;;;;;;;9.80;5.87;;;-1.10;99.90;;;;;;8268664;28;20222;-69
2023/01/28 07:40:58;;;;;;;7.67;5.13;;;-1.10;99.90;;;;;;8265615;28;20221;-69
2023/01/28 07:44:59;;;;;;;7.10;4.90;;;-1.10;99.90;;;;;;8264912;28;20293;-69
2023/01/28 07:49:00;;;;;;;8.00;4.63;;;-1.10;99.90;;;;;;8265650;28;20181;-69
2023/01/28 07:53:05;;;;;;;9.43;4.97;;;-1.20;99.90;;;;;;8265905;28;20223;-69
2023/01/28 07:57:10;;;;;;;7.53;4.70;;;-1.20;99.90;;;;;;8269677;28;20328;-69
2023/01/28 08:01:13;;;;;;;6.17;4.63;;;-1.20;99.90;;;;;;8266780;28;20221;-69
2023/01/28 08:05:18;;;;;;;7.57;5.37;;;-1.20;99.90;;;;;;8267051;28;20196;-69
2023/01/28 08:09:19;;;;;;;7.67;4.70;;;-1.20;99.90;;;;;;8266912;28;20196;-69
2023/01/28 08:13:20;;;;;;;8.10;5.00;;;-1.20;99.90;;;;;;8271825;28;20186;-69
2023/01/28 08:17:21;;;;;;;10.43;5.03;;;-1.20;99.90;;;;;;8267786;28;20651;-69
2023/01/28 08:21:22;;;;;;;6.27;4.90;;;-1.20;99.90;;;;;;8265524;28;20288;-69
2023/01/28 08:25:23;;;;;;;10.23;5.87;;;-1.30;99.90;;;;;;8264726;28;20188;-70
2023/01/28 08:29:23;;;;;;;12.57;7.30;;;-1.20;99.90;;;;;;8265765;28;20292;-69
2023/01/28 08:33:24;;;;;;;14.07;8.17;;;-1.10;99.90;;;;;;8266556;28;20198;-70
2023/01/28 08:37:25;;;;;;;8.53;5.53;;;-1.00;99.90;;;;;;8270438;28;20211;-69
2023/01/28 08:41:26;;;;;;;13.23;7.57;;;-1.00;99.90;;;;;;8266591;28;20287;-70
2023/01/28 08:45:28;;;;;;;10.53;5.47;;;-1.10;99.90;;;;;;8264900;28;20272;-69
2023/01/28 08:49:29;;;;;;;12.30;6.77;;;-1.10;55.90;;;;;;8267659;28;20213;-69
2023/01/28 08:53:29;;;;;;;17.20;9.27;;;-1.20;60.90;;;;;;8270468;28;20192;-70
2023/01/28 08:57:30;;;;;;;17.67;8.43;;;-1.10;99.10;;;;;;8267990;28;20529;-70
2023/01/28 09:01:31;;;;;;;11.27;7.00;;;-1.00;72.70;;;;;;8270311;28;20215;-70
2023/01/28 09:05:33;;;;;;;5.13;4.33;;;-1.00;11.90;;;;;;8266101;28;20243;-70
2023/01/28 09:09:34;;;;;;;20.30;11.53;;;-1.00;1.00;;;;;;8265891;28;20192;-70
2023/01/28 09:13:35;;;;;;;23.33;12.40;;;-0.90;1.00;;;;;;8264607;28;20293;-70
2023/01/28 09:17:36;;;;;;;21.33;11.30;;;-0.80;1.00;;;;;;8261242;28;20226;-70
2023/01/28 09:21:39;;;;;;;14.90;7.83;;;-0.70;1.00;;;;;;8264236;28;20289;-70
2023/01/28 09:25:40;;;;;;;67.53;23.27;;;-0.60;99.90;;;;;;8267018;28;20218;-70
2023/01/28 09:29:41;;;;;;;34.93;14.40;;;-0.50;1.00;;;;;;8262901;28;20240;-70
2023/01/28 09:33:42;;;;;;;27.10;12.13;;;-0.50;99.90;;;;;;8265804;28;20191;-70
2023/01/28 09:37:43;;;;;;;6.77;4.77;;;-0.60;1.00;;;;;;8263906;28;20194;-70
2023/01/28 09:42:11;;;;;;;7.00;5.27;;;-0.60;1.00;;;;;;8262900;28;20294;-70
2023/01/28 09:46:15;;;;;;;5.67;4.63;;;-0.60;99.90;;;;;;8261833;28;20198;-70
2023/01/28 09:50:37;;;;;;;8.40;5.80;;;-0.70;99.90;;;;;;8273942;28;20195;-70
2023/01/28 09:54:46;;;;;;;11.63;7.37;;;-0.70;99.90;;;;;;8271899;28;20664;-70
2023/01/28 09:58:47;;;;;;;5.60;4.23;;;-0.50;99.90;;;;;;8271644;28;20198;-70
2023/01/28 10:03:16;;;;;;;8.90;6.17;;;-0.40;99.90;;;;;;8270653;28;20217;-70
2023/01/28 10:07:38;;;;;;;26.87;13.27;;;-0.50;99.90;;;;;;8269444;28;20182;-70
2023/01/28 10:12:03;;;;;;;31.03;16.43;;;-0.30;1.00;;;;;;8273787;28;20186;-70
2023/01/28 10:16:14;;;;;;;53.33;23.53;;;-0.20;1.00;;;;;;8269558;28;20251;-70
2023/01/28 10:20:27;;;;;;;6.17;4.70;;;-0.20;1.00;;;;;;8271793;28;20203;-69
2023/01/28 10:24:35;;;;;;;13.13;7.83;;;-0.30;1.00;;;;;;8266349;28;20179;-70
2023/01/28 10:28:36;;;;;;;4.03;3.10;;;-0.30;99.90;;;;;;8267174;28;20183;-70
2023/01/28 10:32:44;;;;;;;3.83;2.87;;;-0.30;76.20;;;;;;8268165;28;20195;-70
2023/01/28 10:36:46;;;;;;;5.33;3.37;;;-0.30;39.20;;;;;;8267282;28;20742;-70
2023/01/28 10:40:48;;;;;;;4.13;3.30;;;-0.30;99.90;;;;;;8267847;28;20225;-70
2023/01/28 10:44:49;;;;;;;9.93;5.53;;;-0.30;36.80;;;;;;8276833;28;20197;-69
2023/01/28 10:49:08;;;;;;;7.63;4.33;;;-0.40;99.90;;;;;;8271892;28;20184;-69
2023/01/28 10:53:09;;;;;;;7.33;4.90;;;-0.50;49.50;;;;;;8274859;28;20404;-70
2023/01/28 10:57:15;;;;;;;4.33;2.80;;;-0.60;16.70;;;;;;8269630;28;20190;-70
2023/01/28 11:01:16;;;;;;;4.93;2.90;;;-0.60;32.10;;;;;;8264150;28;20225;-69
2023/01/28 11:05:21;;;;;;;8.03;4.87;;;-0.70;1.00;;;;;;8266928;28;20182;-69
2023/01/28 11:09:24;;;;;;;3.70;2.67;;;-0.60;10.80;;;;;;8267599;28;20192;-69
2023/01/28 11:13:27;;;;;;;6.43;4.27;;;-0.60;1.00;;;;;;8268275;28;20810;-69
2023/01/28 11:17:32;;;;;;;3.53;2.50;;;-0.50;50.40;;;;;;8264054;28;20185;-70
2023/01/28 11:21:34;;;;;;;4.93;3.30;;;-0.50;1.00;;;;;;8267521;28;20242;-70
2023/01/28 11:25:37;;;;;;;4.67;2.80;;;-0.50;1.00;;;;;;8270077;28;20184;-70
2023/01/28 11:29:39;;;;;;;4.07;2.33;;;-0.50;1.00;;;;;;8266661;28;20199;-70
2023/01/28 11:33:53;;;;;;;5.47;2.83;;;-0.50;1.00;;;;;;8266091;28;20196;-69
2023/01/28 11:37:56;;;;;;;5.03;2.70;;;-0.50;1.00;;;;;;8267450;28;20188;-70
2023/01/28 11:42:19;;;;;;;4.97;2.93;;;-0.40;1.00;;;;;;8277937;28;20209;-70
2023/01/28 11:46:19;;;;;;;1.67;1.37;;;-0.50;1.00;;;;;;8279181;28;20340;-70
2023/01/28 11:50:24;;;;;;;3.87;2.07;;;-0.50;99.90;;;;;;8272059;28;20190;-69
2023/01/28 11:54:34;;;;;;;6.17;3.37;;;-0.60;99.90;;;;;;8268248;28;20190;-69
2023/01/28 11:58:57;;;;;;;3.90;2.50;;;-0.70;99.90;;;;;;8270407;28;20190;-70
2023/01/28 12:03:19;;;;;;;3.37;1.90;;;-0.70;99.90;;;;;;8264934;28;20246;-69
2023/01/28 12:07:55;;;;;;;5.07;2.30;;;-0.70;99.90;;;;;;8266828;28;20187;-69
2023/01/28 12:12:15;;;;;;;4.23;2.60;;;-0.90;99.90;;;;;;8275328;28;20201;-69
2023/01/28 12:16:19;;;;;;;1.93;1.73;;;-1.10;99.90;;;;;;8274071;28;20263;-69
2023/01/28 12:20:44;;;;;;;3.13;2.30;;;-1.10;99.90;;;;;;8269375;28;20217;-69
2023/01/28 12:24:54;;;;;;;3.37;2.27;;;-1.10;99.90;;;;;;8266666;28;20184;-69
2023/01/28 12:29:07;;;;;;;4.27;3.00;;;-1.10;99.90;;;;;;8262732;28;20223;-69
2023/01/28 12:33:29;;;;;;;3.40;3.10;;;-1.20;99.90;;;;;;8269515;28;20210;-69
2023/01/28 12:37:54;;;;;;;5.47;4.33;;;-1.30;99.90;;;;;;8262437;28;20276;-69
2023/01/28 12:42:13;;;;;;;6.63;4.37;;;-1.40;99.90;;;;;;8262636;28;20490;-69
2023/01/28 12:46:37;;;;;;;5.97;4.33;;;-1.50;99.90;;;;;;8264431;28;20200;-69
2023/01/28 12:51:03;;;;;;;6.67;4.23;;;-1.40;99.90;;;;;;8259188;28;20204;-69
2023/01/28 12:55:17;;;;;;;4.57;3.40;;;-1.30;99.90;;;;;;8267278;28;20240;-69
2023/01/28 12:59:21;;;;;;;12.50;6.00;;;-1.20;99.90;;;;;;8268639;28;20227;-70
2023/01/28 13:03:42;;;;;;;6.53;4.60;;;-1.30;99.90;;;;;;8271251;28;20191;-69
2023/01/28 13:07:51;;;;;;;6.03;4.63;;;-1.40;1.00;;;;;;8262547;28;20182;-69
2023/01/28 13:11:56;;;;;;;5.47;4.50;;;-1.40;99.90;;;;;;8265200;28;20198;-70
2023/01/28 13:15:58;;;;;;;7.03;4.80;;;-1.40;1.00;;;;;;8266350;28;20186;-70
2023/01/28 13:19:59;;;;;;;7.23;4.57;;;-1.40;1.00;;;;;;8261705;28;20368;-69
2023/01/28 13:24:10;;;;;;;6.17;4.13;;;-1.40;99.90;;;;;;8269169;28;20193;-70
2023/01/28 13:28:29;;;;;;;7.57;4.00;;;-1.40;1.00;;;;;;8270685;28;20277;-70
2023/01/28 13:32:33;;;;;;;13.60;7.30;;;-1.40;1.00;;;;;;8262082;28;20197;-70
2023/01/28 13:36:45;;;;;;;6.50;4.30;;;-1.30;1.00;;;;;;8264374;28;20211;-70
2023/01/28 13:40:59;;;;;;;8.97;6.00;;;-1.30;99.90;;;;;;8280563;28;20231;-70
2023/01/28 13:45:15;;;;;;;10.10;7.10;;;-1.40;1.00;;;;;;8266124;28;20191;-70
2023/01/28 13:49:27;;;;;;;6.13;4.07;;;-1.30;1.00;;;;;;8260351;28;20186;-70
2023/01/28 13:53:35;;;;;;;9.93;5.80;;;-1.30;99.90;;;;;;8270417;28;20198;-70
2023/01/28 13:57:53;;;;;;;5.07;3.73;;;-1.40;1.00;;;;;;8261703;28;20189;-69
2023/01/28 14:02:31;;;;;;;5.97;3.80;;;-1.40;1.00;;;;;;8264423;28;20205;-70
2023/01/28 14:06:50;;;;;;;7.23;4.13;;;-1.50;1.00;;;;;;8268851;28;20205;-70
2023/01/28 14:10:54;;;;;;;6.67;3.83;;;-1.50;1.00;;;;;;8263343;28;20200;-70
2023/01/28 14:14:58;;;;;;;5.43;3.30;;;-1.50;1.00;;;;;;8260251;28;20184;-70
2023/01/28 14:19:01;;;;;;;8.37;5.40;;;-1.50;1.00;;;;;;8263875;28;20198;-70
2023/01/28 14:23:04;;;;;;;7.40;4.57;;;-1.50;1.00;;;;;;8258052;28;20216;-70
2023/01/28 14:27:20;;;;;;;4.77;3.70;;;-1.40;1.00;;;;;;8265100;28;20197;-71
2023/01/28 14:31:24;;;;;;;4.70;3.27;;;-1.50;1.00;;;;;;8261307;28;20189;-70
2023/01/28 14:35:31;;;;;;;3.70;3.00;;;-1.50;1.00;;;;;;8267701;28;20210;-70
2023/01/28 14:39:51;;;;;;;4.83;3.37;;;-1.50;1.00;;;;;;8265319;28;20609;-70
2023/01/28 14:43:54;;;;;;;4.00;2.77;;;-1.50;4.90;;;;;;8275670;28;20260;-70
2023/01/28 14:47:58;;;;;;;4.37;3.33;;;-1.50;1.00;;;;;;8269668;28;20396;-70
2023/01/28 14:52:32;;;;;;;7.00;4.20;;;-1.50;1.00;;;;;;8269014;28;20195;-70
2023/01/28 14:57:03;;;;;;;7.53;4.97;;;-1.40;1.00;;;;;;8267864;28;20286;-69
2023/01/28 15:01:04;;;;;;;5.57;3.23;;;-1.40;1.00;;;;;;8273213;28;20223;-69
2023/01/28 15:05:13;;;;;;;5.67;3.73;;;-1.50;1.00;;;;;;8268161;28;20213;-70
2023/01/28 15:09:14;;;;;;;6.43;3.67;;;-1.40;1.00;;;;;;8265098;28;20193;-70
2023/01/28 15:13:25;;;;;;;7.73;4.87;;;-1.50;94.10;;;;;;8269576;28;20207;-70
2023/01/28 15:17:27;;;;;;;7.27;4.70;;;-1.50;96.10;;;;;;8274963;28;20195;-70
2023/01/28 15:21:29;;;;;;;6.87;4.13;;;-1.50;73.10;;;;;;8270040;28;20223;-70
2023/01/28 15:25:30;;;;;;;7.60;4.20;;;-1.50;99.90;;;;;;8269522;28;20186;-70
2023/01/28 15:29:33;;;;;;;7.23;4.27;;;-1.50;54.50;;;;;;8263147;28;20188;-70
2023/01/28 15:33:34;;;;;;;6.90;3.80;;;-1.50;98.60;;;;;;8264858;28;20205;-70
2023/01/28 15:37:36;;;;;;;4.30;3.37;;;-1.50;99.90;;;;;;8268330;28;20204;-70
2023/01/28 15:41:42;;;;;;;12.03;6.40;;;-1.50;91.10;;;;;;8270352;28;20214;-70
2023/01/28 15:45:48;;;;;;;9.70;5.07;;;-1.50;12.40;;;;;;8266353;28;20186;-70
2023/01/28 15:49:52;;;;;;;6.83;4.30;;;-1.50;48.10;;;;;;8264909;28;20198;-70
2023/01/28 15:54:07;;;;;;;6.60;4.20;;;-1.50;99.90;;;;;;8270566;28;20188;-70
2023/01/28 15:58:18;;;;;;;5.03;3.43;;;-1.50;1.00;;;;;;8279170;28;20217;-71
2023/01/28 16:02:22;;;;;;;8.53;4.93;;;-1.40;1.00;;;;;;8274002;28;20231;-70
2023/01/28 16:06:30;;;;;;;6.40;4.00;;;-1.40;21.20;;;;;;8284361;28;20183;-68
2023/01/28 16:10:31;;;;;;;7.07;3.57;;;-1.50;99.90;;;;;;8272717;28;20198;-69
2023/01/28 16:14:51;;;;;;;8.53;3.63;;;-1.50;99.90;;;;;;8261777;28;20323;-68
2023/01/28 16:18:54;;;;;;;6.33;3.50;;;-1.50;14.60;;;;;;8272623;28;20293;-69
2023/01/28 16:23:01;;;;;;;6.43;3.57;;;-1.50;95.60;;;;;;8266713;28;20228;-68
2023/01/28 16:27:18;;;;;;;5.33;3.03;;;-1.50;99.80;;;;;;8270444;28;20181;-68
2023/01/28 16:31:20;;;;;;;6.80;4.37;;;-1.50;1.00;;;;;;8257914;28;20201;-68
2023/01/28 16:35:31;;;;;;;8.87;4.73;;;-1.50;1.00;;;;;;8265561;28;20218;-68
2023/01/28 16:39:32;;;;;;;8.20;3.73;;;-1.40;1.00;;;;;;8266841;28;20210;-68
2023/01/28 16:43:33;;;;;;;4.90;3.10;;;-1.40;1.00;;;;;;8268717;28;20214;-69
2023/01/28 16:47:34;;;;;;;5.17;3.00;;;-1.40;1.00;;;;;;8263490;28;20186;-69
2023/01/28 16:51:37;;;;;;;5.37;3.00;;;-1.50;1.00;;;;;;8267359;28;20197;-68
2023/01/28 16:55:38;;;;;;;4.63;2.73;;;-1.50;1.00;;;;;;8263781;28;20223;-68
2023/01/28 16:59:38;;;;;;;3.90;2.40;;;-1.50;1.00;;;;;;8265024;28;20208;-68
2023/01/28 17:03:39;;;;;;;3.97;2.33;;;-1.40;6.60;;;;;;8263344;28;20212;-69
2023/01/28 17:07:41;;;;;;;4.50;2.07;;;-1.50;93.70;;;;;;8268897;28;20200;-68
2023/01/28 17:11:42;;;;;;;4.40;1.80;;;-1.50;89.10;;;;;;8263110;28;20191;-68
2023/01/28 17:15:44;;;;;;;8.20;4.10;;;-1.50;1.00;;;;;;8259631;28;20203;-68
2023/01/28 17:19:45;;;;;;;5.30;3.67;;;-1.50;21.00;;;;;;8267725;28;20208;-68
2023/01/28 17:23:46;;;;;;;4.70;3.00;;;-1.50;99.90;;;;;;8261775;28;20199;-68
2023/01/28 17:27:49;;;;;;;6.00;2.60;;;-1.50;99.90;;;;;;8263510;28;20185;-68
2023/01/28 17:31:49;;;;;;;2.87;1.83;;;-1.50;99.90;;;;;;8257594;28;20525;-68
2023/01/28 17:35:50;;;;;;;2.70;1.77;;;-1.50;99.90;;;;;;8263213;28;20373;-68
2023/01/28 17:39:51;;;;;;;4.43;1.80;;;-1.40;99.90;;;;;;8259167;28;20260;-67
2023/01/28 17:43:54;;;;;;;3.03;1.80;;;-1.50;99.90;;;;;;8264254;28;20191;-68
2023/01/28 17:47:56;;;;;;;2.97;1.57;;;-1.40;99.90;;;;;;8260212;28;20267;-68
2023/01/28 17:51:56;;;;;;;3.70;2.20;;;-1.40;99.90;;;;;;8264797;28;20190;-68
2023/01/28 17:55:57;;;;;;;4.80;2.10;;;-1.40;99.90;;;;;;8264663;28;20183;-68
2023/01/28 17:59:58;;;;;;;4.80;2.60;;;-1.50;99.90;;;;;;8265525;28;20218;-68
2023/01/28 18:04:00;;;;;;;2.60;2.03;;;-1.50;99.90;;;;;;8264692;28;20257;-68
2023/01/28 18:08:01;;;;;;;7.77;3.43;;;-1.50;99.90;;;;;;8261989;28;20197;-68
2023/01/28 18:12:02;;;;;;;5.90;2.97;;;-1.50;99.90;;;;;;8267827;28;20197;-68
2023/01/28 18:16:05;;;;;;;4.23;2.53;;;-1.50;99.90;;;;;;8272129;28;20466;-68
2023/01/28 18:20:07;;;;;;;2.37;1.60;;;-1.50;99.90;;;;;;8273527;28;20213;-68
2023/01/28 18:24:09;;;;;;;4.07;2.50;;;-1.50;99.90;;;;;;8275438;28;20193;-67
2023/01/28 18:28:09;;;;;;;2.33;1.53;;;-1.50;99.90;;;;;;8270355;28;20218;-68
2023/01/28 18:32:10;;;;;;;1.67;1.33;;;-1.50;99.90;;;;;;8264693;28;20226;-68
2023/01/28 18:36:11;;;;;;;2.43;1.67;;;-1.50;99.90;;;;;;8270119;28;20210;-68
2023/01/28 18:40:12;;;;;;;2.07;1.50;;;-1.50;99.90;;;;;;8271805;28;20219;-68
2023/01/28 18:44:15;;;;;;;3.33;1.83;;;-1.50;99.90;;;;;;8276856;28;20190;-68
2023/01/28 18:48:16;;;;;;;2.93;2.00;;;-1.50;99.90;;;;;;8264821;28;20219;-67
2023/01/28 18:52:17;;;;;;;4.07;2.10;;;-1.50;99.90;;;;;;8268314;28;20201;-68
2023/01/28 18:56:18;;;;;;;3.80;2.00;;;-1.50;99.90;;;;;;8263863;28;20189;-67
2023/01/28 19:00:19;;;;;;;3.87;1.80;;;-1.50;99.90;;;;;;8269192;28;20299;-68
2023/01/28 19:04:21;;;;;;;3.80;1.73;;;-1.50;99.90;;;;;;8264984;28;20263;-68
2023/01/28 19:08:21;;;;;;;2.43;1.77;;;-1.50;99.90;;;;;;8267347;28;20206;-67
2023/01/28 19:12:22;;;;;;;2.73;1.83;;;-1.50;99.90;;;;;;8271449;28;20243;-68
2023/01/28 19:16:24;;;;;;;2.27;1.47;;;-1.50;99.90;;;;;;8264131;28;20241;-68
2023/01/28 19:20:25;;;;;;;2.47;1.80;;;-1.50;99.90;;;;;;8266345;28;20210;-67
2023/01/28 19:24:26;;;;;;;2.87;2.13;;;-1.50;99.90;;;;;;8267914;28;20191;-68
2023/01/28 19:28:31;;;;;;;4.60;1.70;;;-1.50;99.90;;;;;;8274840;28;20201;-67
2023/01/28 19:32:32;;;;;;;3.03;2.07;;;-1.40;99.90;;;;;;8266417;28;20243;-68
2023/01/28 19:36:34;;;;;;;4.23;2.10;;;-1.40;99.90;;;;;;8267674;28;20221;-67
2023/01/28 19:40:39;;;;;;;2.80;2.07;;;-1.40;99.90;;;;;;8261883;28;20213;-68
2023/01/28 19:44:40;;;;;;;4.57;2.37;;;-1.40;99.90;;;;;;8265556;28;20196;-67
2023/01/28 19:48:41;;;;;;;3.63;2.27;;;-1.50;99.90;;;;;;8264118;28;20450;-67
2023/01/28 19:52:42;;;;;;;4.03;2.03;;;-1.50;99.90;;;;;;8272015;28;20204;-67
2023/01/28 19:56:42;;;;;;;3.60;2.00;;;-1.50;99.90;;;;;;8267877;28;20546;-68
2023/01/28 20:00:44;;;;;;;4.60;2.70;;;-1.60;99.90;;;;;;8272951;28;20217;-67
2023/01/28 20:04:45;;;;;;;5.40;2.67;;;-1.50;99.90;;;;;;8272182;28;20310;-68
2023/01/28 20:08:54;;;;;;;5.97;3.33;;;-1.50;99.90;;;;;;8269144;28;20199;-69
2023/01/28 20:12:55;;;;;;;5.63;2.80;;;-1.50;99.90;;;;;;8263315;28;20190;-68
2023/01/28 20:16:56;;;;;;;6.60;3.30;;;-1.40;99.90;;;;;;8267642;28;20217;-68
2023/01/28 20:20:57;;;;;;;5.37;3.27;;;-1.40;99.90;;;;;;8269530;28;20217;-68
2023/01/28 20:24:58;;;;;;;6.37;3.70;;;-1.40;99.90;;;;;;8263249;28;20211;-68
2023/01/28 20:29:01;;;;;;;6.70;3.50;;;-1.40;99.90;;;;;;8264915;28;20182;-69
2023/01/28 20:33:01;;;;;;;4.63;2.77;;;-1.40;99.90;;;;;;8266237;28;20200;-69
2023/01/28 20:37:05;;;;;;;4.87;2.67;;;-1.40;99.90;;;;;;8263377;28;20270;-68
2023/01/28 20:41:08;;;;;;;4.93;2.13;;;-1.40;99.90;;;;;;8260132;28;20478;-68
2023/01/28 20:45:09;;;;;;;4.00;2.20;;;-1.40;99.90;;;;;;8267414;28;20182;-68
2023/01/28 20:49:10;;;;;;;2.97;2.03;;;-1.30;99.90;;;;;;8263386;28;20265;-68
2023/01/28 20:53:11;;;;;;;2.80;2.40;;;-1.40;99.90;;;;;;8261722;28;20198;-69
2023/01/28 20:57:12;;;;;;;4.60;2.77;;;-1.40;99.90;;;;;;8265047;28;20309;-69
2023/01/28 21:01:17;;;;;;;6.43;3.10;;;-1.30;99.90;;;;;;8260905;28;20546;-68
2023/01/28 21:05:18;;;;;;;6.63;3.30;;;-1.40;99.90;;;;;;8262928;28;20201;-68
2023/01/28 21:09:19;;;;;;;6.57;3.20;;;-1.40;99.90;;;;;;8264396;28;20376;-69
2023/01/28 21:13:20;;;;;;;7.70;3.63;;;-1.40;99.90;;;;;;8264671;28;20192;-69
2023/01/28 21:17:21;;;;;;;5.13;3.27;;;-1.40;99.90;;;;;;8263781;28;20223;-69
2023/01/28 21:21:24;;;;;;;6.93;3.77;;;-1.40;99.90;;;;;;8263216;28;20770;-68
2023/01/28 21:25:25;;;;;;;7.93;4.33;;;-1.30;99.90;;;;;;8268031;28;20331;-69
2023/01/28 21:29:26;;;;;;;7.00;3.90;;;-1.30;99.90;;;;;;8259640;28;20189;-69
2023/01/28 21:33:27;;;;;;;10.80;4.20;;;-1.30;99.90;;;;;;8265140;28;20187;-68